Time;durP1;ratioP1;P1;durP2;ratioP2;P2;SDS_P1;SDS_P2;PMS_P1;PMS_P2;Temp;Humidity;BMP_temperature;BMP_pressure;BME280_temperature;BME280_humidity;BME280_pressure;Samples;Min_cycle;Max_cycle;Signal;HPM_P1;HPM_P2
2023/01/09 00:00:50;;;;;;;5.63;1.98;;;;;;;7.72;100.00;99286.72;5034853;28;20034;-71
2023/01/09 00:03:17;;;;;;;5.88;1.75;;;;;;;7.73;100.00;99298.19;5044233;28;20084;-71
2023/01/09 00:05:43;;;;;;;4.68;1.58;;;;;;;7.81;100.00;99292.31;5036022;28;20093;-71
2023/01/09 00:08:09;;;;;;;6.20;1.77;;;;;;;7.72;100.00;99286.72;5045327;28;20493;-71
2023/01/09 00:10:34;;;;;;;4.05;1.98;;;;;;;7.70;100.00;99293.97;5001509;28;20060;-71
2023/01/09 00:13:00;;;;;;;7.43;2.35;;;;;;;7.72;100.00;99305.31;5017052;28;20061;-72
2023/01/09 00:15:25;;;;;;;12.18;3.00;;;;;;;7.72;100.00;99301.81;5040633;28;20131;-72
2023/01/09 00:17:51;;;;;;;5.05;2.85;;;;;;;7.65;100.00;99308.56;5039429;28;20057;-71
2023/01/09 00:20:16;;;;;;;5.30;3.95;;;;;;;7.65;100.00;99320.00;5032594;28;20071;-72
2023/01/09 00:22:42;;;;;;;5.05;3.35;;;;;;;7.57;100.00;99321.53;5039565;28;20589;-72
2023/01/09 00:25:08;;;;;;;6.88;2.55;;;;;;;7.58;100.00;99326.75;5039243;28;20048;-72
2023/01/09 00:27:35;;;;;;;8.55;2.97;;;;;;;7.58;100.00;99312.63;5042570;28;20402;-72
2023/01/09 00:30:01;;;;;;;2.50;1.75;;;;;;;7.62;100.00;99322.88;5041037;28;20053;-71
2023/01/09 00:32:27;;;;;;;1.92;1.38;;;;;;;7.41;100.00;99309.44;5035212;28;20044;-71
2023/01/09 00:34:54;;;;;;;2.75;1.40;;;;;;;7.46;100.00;99303.78;5025843;28;20041;-72
2023/01/09 00:37:20;;;;;;;2.35;1.50;;;;;;;7.41;100.00;99301.47;5040133;28;20037;-72
2023/01/09 00:39:45;;;;;;;1.85;1.75;;;;;;;7.32;100.00;99299.50;5020539;28;20072;-71
2023/01/09 00:42:16;;;;;;;5.03;1.23;;;;;;;7.36;100.00;99290.38;5030466;28;20050;-71
2023/01/09 00:45:03;;;;;;;3.00;0.95;;;;;;;7.30;100.00;99304.09;5038481;28;20055;-71
2023/01/09 00:47:37;;;;;;;5.00;1.52;;;;;;;7.30;100.00;99301.44;5036232;28;20167;-71
2023/01/09 00:50:09;;;;;;;4.00;1.55;;;;;;;6.98;100.00;99304.69;5042918;28;20106;-71
2023/01/09 00:52:36;;;;;;;3.90;1.70;;;;;;;6.92;100.00;99302.44;5007669;28;20057;-72
2023/01/09 00:55:03;;;;;;;4.90;1.45;;;;;;;7.07;100.00;99307.59;5040262;28;20055;-71
2023/01/09 00:57:29;;;;;;;6.82;1.90;;;;;;;7.12;100.00;99308.94;5026096;28;20131;-72
2023/01/09 00:59:55;;;;;;;3.78;1.88;;;;;;;7.01;100.00;99312.38;5024113;28;20072;-71
2023/01/09 01:02:21;;;;;;;6.47;2.30;;;;;;;6.97;100.00;99312.72;5032812;28;20073;-71
2023/01/09 01:07:37;;;;;;;5.18;2.13;;;;;;;6.87;100.00;99315.19;5033967;28;20037;-71
2023/01/09 01:10:09;;;;;;;6.60;2.40;;;;;;;6.70;100.00;99318.22;5035569;28;20045;-71
2023/01/09 01:12:35;;;;;;;4.50;2.38;;;;;;;6.54;100.00;99329.06;5020498;28;20555;-71
2023/01/09 01:15:01;;;;;;;5.50;2.45;;;;;;;6.47;100.00;99328.66;5035358;28;20083;-72
2023/01/09 01:17:26;;;;;;;6.28;2.83;;;;;;;6.43;100.00;99321.91;5030556;28;20060;-71
2023/01/09 01:19:52;;;;;;;6.35;2.58;;;;;;;6.26;100.00;99331.97;5040527;28;20048;-71
2023/01/09 01:22:17;;;;;;;3.83;2.10;;;;;;;6.30;100.00;99336.94;5038571;28;20045;-71
2023/01/09 01:24:43;;;;;;;2.97;2.10;;;;;;;6.17;100.00;99334.28;5037543;28;20037;-71
2023/01/09 01:27:08;;;;;;;11.38;2.78;;;;;;;6.24;100.00;99340.03;5025006;28;20470;-71
2023/01/09 01:29:34;;;;;;;6.13;2.15;;;;;;;6.11;100.00;99342.66;5032742;28;20049;-72
2023/01/09 01:31:59;;;;;;;6.15;1.90;;;;;;;6.16;100.00;99347.63;5039809;28;20075;-71
2023/01/09 01:34:26;;;;;;;6.50;3.17;;;;;;;6.23;100.00;99343.63;5034143;28;20041;-71
2023/01/09 01:36:52;;;;;;;12.70;2.92;;;;;;;6.17;100.00;99341.38;5034732;28;20057;-72
2023/01/09 01:39:17;;;;;;;5.60;2.50;;;;;;;6.14;100.00;99341.63;4996557;28;20292;-72
2023/01/09 01:41:43;;;;;;;5.18;2.63;;;;;;;6.21;100.00;99334.94;5007300;28;20042;-71
2023/01/09 01:44:46;;;;;;;6.38;2.50;;;;;;;6.04;100.00;99336.09;5040977;28;20053;-70
2023/01/09 01:47:12;;;;;;;;;;;;;;;5.92;100.00;99337.81;5031990;28;20165;-71
2023/01/09 01:49:37;;;;;;;7.15;3.05;;;;;;;6.05;100.00;99334.31;5036211;28;20015;-71
2023/01/09 01:52:03;;;;;;;7.95;3.92;;;;;;;5.94;100.00;99350.91;5042105;28;20064;-71
2023/01/09 01:54:30;;;;;;;6.53;3.33;;;;;;;5.98;100.00;99355.06;5036636;28;20053;-72
2023/01/09 01:57:02;;;;;;;3.50;2.75;;;;;;;5.76;100.00;99357.41;5022242;28;20058;-72
2023/01/09 01:59:33;;;;;;;6.32;3.30;;;;;;;5.86;100.00;99361.13;5038726;28;20083;-71
2023/01/09 02:02:01;;;;;;;3.88;2.95;;;;;;;5.80;100.00;99365.03;5034449;28;20067;-71
2023/01/09 02:04:28;;;;;;;8.18;3.17;;;;;;;5.53;100.00;99362.47;5039488;28;20072;-71
2023/01/09 02:06:55;;;;;;;5.60;3.13;;;;;;;5.56;100.00;99362.25;5036133;28;20045;-71
2023/01/09 02:09:24;;;;;;;7.57;3.50;;;;;;;5.72;100.00;99364.69;5018477;28;20045;-71
2023/01/09 02:11:51;;;;;;;5.38;3.10;;;;;;;5.67;100.00;99364.16;5044878;28;20766;-71
2023/01/09 02:14:19;;;;;;;9.23;3.00;;;;;;;5.49;100.00;99363.59;5010691;28;20049;-71
2023/01/09 02:16:58;;;;;;;9.13;3.53;;;;;;;5.50;100.00;99357.38;5043828;28;20574;-71
2023/01/09 02:19:42;;;;;;;12.95;4.30;;;;;;;5.31;100.00;99364.81;5040988;28;20607;-71
2023/01/09 02:22:28;;;;;;;6.28;3.00;;;;;;;5.38;100.00;99366.13;5046402;28;20053;-71
2023/01/09 02:25:06;;;;;;;9.10;3.67;;;;;;;5.29;100.00;99367.56;5036521;28;20228;-71
2023/01/09 02:28:00;;;;;;;8.93;3.78;;;;;;;5.29;100.00;99367.56;5044543;28;20041;-72
2023/01/09 02:30:36;;;;;;;6.97;3.08;;;;;;;5.13;100.00;99356.31;5003239;28;20053;-71
2023/01/09 02:33:21;;;;;;;11.48;3.35;;;;;;;5.18;100.00;99362.97;5011634;28;20124;-71
2023/01/09 02:35:59;;;;;;;7.20;2.63;;;;;;;5.02;100.00;99364.06;5037257;28;20068;-71
2023/01/09 02:38:43;;;;;;;3.78;1.77;;;;;;;4.90;100.00;99363.06;5039102;28;20052;-71
2023/01/09 02:41:29;;;;;;;6.55;2.40;;;;;;;5.02;100.00;99366.69;5033288;28;20124;-71
2023/01/09 02:44:31;;;;;;;3.78;2.03;;;;;;;5.12;100.00;99363.38;5018806;28;20211;-70
2023/01/09 02:47:05;;;;;;;3.03;2.10;;;;;;;5.15;100.00;99380.81;4940014;29;20044;-70
2023/01/09 02:49:37;;;;;;;6.82;2.47;;;;;;;5.08;100.00;99385.66;4936424;29;20062;-70
2023/01/09 02:52:43;;;;;;;8.23;2.22;;;;;;;5.14;100.00;99385.25;4935810;29;20086;-70
2023/01/09 02:55:08;;;;;;;6.28;3.13;;;;;;;5.26;100.00;99386.25;4932485;29;20047;-72
2023/01/09 02:58:03;;;;;;;10.57;3.17;;;;;;;5.17;100.00;99378.91;4931898;29;20068;-70
2023/01/09 03:00:40;;;;;;;6.72;3.25;;;;;;;5.24;100.00;99377.59;4938129;29;20055;-73
2023/01/09 03:03:18;;;;;;;12.35;3.20;;;;;;;5.20;100.00;99386.66;4920389;29;20127;-71
2023/01/09 03:06:07;;;;;;;5.63;3.33;;;;;;;5.17;100.00;99376.28;4936105;29;20051;-73
2023/01/09 03:08:39;;;;;;;8.50;3.33;;;;;;;5.12;100.00;99383.66;4938864;29;20142;-72
2023/01/09 03:11:06;;;;;;;4.45;2.63;;;;;;;5.19;100.00;99387.59;4934424;29;20119;-72
2023/01/09 03:13:41;;;;;;;5.35;2.83;;;;;;;5.11;100.00;99380.16;4931410;29;20058;-72
2023/01/09 03:16:10;;;;;;;6.28;2.40;;;;;;;5.06;100.00;99378.75;4942038;28;20051;-73
2023/01/09 03:18:38;;;;;;;5.93;2.97;;;;;;;4.94;100.00;99375.97;4930457;29;20051;-72
2023/01/09 03:21:06;;;;;;;10.40;3.97;;;;;;;4.95;100.00;99384.75;4985482;28;20065;-73
2023/01/09 03:23:54;;;;;;;14.27;4.68;;;;;;;4.92;100.00;99387.59;5044447;28;20049;-73
2023/01/09 03:26:20;;;;;;;10.90;5.53;;;;;;;4.93;100.00;99384.84;5038769;28;20055;-73
2023/01/09 03:28:46;;;;;;;12.23;4.75;;;;;;;4.92;100.00;99384.94;5011839;28;20049;-73
2023/01/09 03:31:13;;;;;;;8.90;5.20;;;;;;;5.03;100.00;99384.25;5028196;28;20507;-73
2023/01/09 03:33:39;;;;;;;11.52;6.03;;;;;;;4.86;100.00;99380.88;5037803;28;20056;-73
2023/01/09 03:36:05;;;;;;;9.73;5.97;;;;;;;4.79;100.00;99381.38;5040543;28;20049;-73
2023/01/09 03:38:30;;;;;;;16.15;6.70;;;;;;;4.90;100.00;99381.53;5041926;28;20058;-72
2023/01/09 03:40:56;;;;;;;13.77;6.45;;;;;;;4.87;100.00;99385.25;5045039;28;20049;-73
2023/01/09 03:43:21;;;;;;;11.30;6.53;;;;;;;4.82;100.00;99399.66;5041557;28;20056;-73
2023/01/09 03:45:47;;;;;;;9.35;4.60;;;;;;;4.67;100.00;99390.94;5034345;28;20041;-73
2023/01/09 03:48:12;;;;;;;7.38;3.90;;;;;;;4.78;100.00;99390.25;5028077;28;20041;-72
2023/01/09 03:50:37;;;;;;;12.18;3.95;;;;;;;4.68;100.00;99382.06;5038799;28;20591;-73
2023/01/09 03:53:03;;;;;;;7.60;3.28;;;;;;;4.74;100.00;99394.88;5025738;28;20483;-73
2023/01/09 03:55:28;;;;;;;9.35;2.60;;;;;;;4.54;100.00;99392.63;5042900;28;20060;-71
2023/01/09 03:57:54;;;;;;;9.60;2.72;;;;;;;4.50;100.00;99391.97;5045634;28;20060;-71
2023/01/09 04:00:20;;;;;;;4.60;2.88;;;;;;;4.60;100.00;99392.25;5027007;28;20158;-71
2023/01/09 04:02:46;;;;;;;11.15;2.67;;;;;;;4.61;100.00;99389.50;5046333;28;20079;-71
2023/01/09 04:05:11;;;;;;;7.28;2.47;;;;;;;4.57;100.00;99389.81;5019747;28;20061;-71
2023/01/09 04:07:37;;;;;;;5.32;2.50;;;;;;;4.45;100.00;99383.47;5033335;28;20064;-72
2023/01/09 04:10:03;;;;;;;8.10;3.58;;;;;;;4.54;100.00;99384.72;5016348;28;20127;-71
2023/01/09 04:12:28;;;;;;;6.25;2.53;;;;;;;4.49;100.00;99386.78;5031737;28;20045;-71
2023/01/09 04:14:54;;;;;;;9.43;2.80;;;;;;;4.47;100.00;99392.16;5023494;28;20069;-70
2023/01/09 04:17:19;;;;;;;11.93;3.28;;;;;;;4.48;100.00;99404.41;5045033;28;20041;-71
2023/01/09 04:19:45;;;;;;;7.88;2.85;;;;;;;4.53;100.00;99398.84;5037081;28;20094;-71
2023/01/09 04:22:10;;;;;;;15.82;3.25;;;;;;;4.58;100.00;99396.78;5044770;28;20226;-71
2023/01/09 04:24:36;;;;;;;10.13;3.28;;;;;;;4.59;100.00;99401.94;5045243;28;20037;-73
2023/01/09 04:27:01;;;;;;;8.73;3.20;;;;;;;4.46;100.00;99386.97;5015318;28;20963;-71
2023/01/09 04:29:27;;;;;;;11.30;4.03;;;;;;;4.54;100.00;99393.47;5034913;28;20072;-71
2023/01/09 04:31:52;;;;;;;9.20;3.08;;;;;;;4.57;100.00;99395.09;5045574;28;20053;-72
2023/01/09 04:34:18;;;;;;;7.68;3.28;;;;;;;4.58;100.00;99400.25;5028043;28;20040;-71
2023/01/09 04:36:43;;;;;;;10.18;4.18;;;;;;;4.67;100.00;99407.63;5015686;28;20478;-71
2023/01/09 04:39:09;;;;;;;12.95;3.55;;;;;;;4.63;100.00;99397.34;5015803;28;20049;-70
2023/01/09 04:41:49;;;;;;;7.15;2.90;;;;;;;4.68;100.00;99401.38;5041473;28;20042;-71
2023/01/09 04:44:17;;;;;;;7.10;3.13;;;;;;;4.71;100.00;99407.41;5005814;28;20802;-71
2023/01/09 04:46:42;;;;;;;12.52;3.70;;;;;;;4.74;100.00;99409.88;5043926;28;20483;-71
2023/01/09 04:49:08;;;;;;;11.68;3.97;;;;;;;4.71;100.00;99413.53;5003733;28;20084;-71
2023/01/09 04:51:33;;;;;;;11.80;4.13;;;;;;;4.70;100.00;99406.56;5042690;28;20044;-71
2023/01/09 04:53:59;;;;;;;8.93;2.88;;;;;;;4.84;100.00;99417.13;5036807;28;20049;-72
2023/01/09 04:56:24;;;;;;;10.55;3.30;;;;;;;4.86;100.00;99407.28;5023624;28;20057;-72
2023/01/09 04:58:50;;;;;;;13.80;4.18;;;;;;;4.86;100.00;99409.09;5042844;28;20099;-72
2023/01/09 05:01:15;;;;;;;8.95;3.22;;;;;;;4.82;100.00;99408.44;5040358;28;20051;-71
2023/01/09 05:03:41;;;;;;;6.80;3.65;;;;;;;4.77;100.00;99417.56;5039681;28;20620;-72
2023/01/09 05:06:06;;;;;;;6.28;2.90;;;;;;;4.96;100.00;99414.63;5032079;28;20394;-72
2023/01/09 05:08:32;;;;;;;6.38;2.92;;;;;;;5.14;100.00;99408.19;5036479;28;20045;-72
2023/01/09 05:10:58;;;;;;;5.05;2.55;;;;;;;5.19;100.00;99414.88;5042690;28;20496;-72
2023/01/09 05:13:23;;;;;;;9.70;3.35;;;;;;;5.20;100.00;99407.78;5025545;28;20651;-71
2023/01/09 05:15:49;;;;;;;8.63;2.88;;;;;;;5.27;100.00;99413.53;5040895;28;20140;-72
2023/01/09 05:18:14;;;;;;;9.63;2.90;;;;;;;5.27;100.00;99414.41;5034790;28;20127;-72
2023/01/09 05:20:40;;;;;;;17.52;3.03;;;;;;;5.31;100.00;99415.88;5042466;28;20633;-71
2023/01/09 05:23:05;;;;;;;17.50;3.97;;;;;;;5.32;100.00;99408.78;5026240;28;20048;-72
2023/01/09 05:25:31;;;;;;;9.07;3.17;;;;;;;5.45;100.00;99412.34;5015277;28;20059;-72
2023/01/09 05:27:56;;;;;;;6.13;2.92;;;;;;;5.54;100.00;99408.25;5039549;28;20045;-72
2023/01/09 05:30:22;;;;;;;14.00;3.92;;;;;;;5.49;100.00;99419.13;5037811;28;20509;-72
2023/01/09 05:32:47;;;;;;;9.07;3.15;;;;;;;5.54;100.00;99409.09;5034899;28;20559;-72
2023/01/09 05:35:13;;;;;;;10.43;2.95;;;;;;;5.64;100.00;99409.34;5041879;28;20064;-71
2023/01/09 05:37:38;;;;;;;12.65;2.55;;;;;;;5.62;100.00;99413.88;5002436;28;20059;-72
2023/01/09 05:40:05;;;;;;;12.95;3.72;;;;;;;5.60;100.00;99410.50;5043104;28;20056;-71
2023/01/09 05:42:31;;;;;;;10.95;2.65;;;;;;;5.64;100.00;99404.06;5041723;28;20041;-72
2023/01/09 05:44:56;;;;;;;5.85;2.80;;;;;;;5.68;100.00;99408.19;5029375;28;20040;-72
2023/01/09 05:47:22;;;;;;;5.85;2.63;;;;;;;5.65;100.00;99403.94;5042378;28;20033;-72
2023/01/09 05:49:47;;;;;;;10.82;3.45;;;;;;;5.65;100.00;99397.81;5043400;28;20540;-72
2023/01/09 05:52:13;;;;;;;7.45;2.35;;;;;;;5.56;100.00;99403.69;5032208;28;20056;-71
2023/01/09 05:54:38;;;;;;;12.07;3.03;;;;;;;5.62;100.00;99396.22;5051255;28;20044;-72
2023/01/09 05:57:05;;;;;;;10.23;2.42;;;;;;;5.55;100.00;99396.72;5039436;28;20053;-71
2023/01/09 05:59:30;;;;;;;7.93;2.65;;;;;;;5.54;100.00;99403.81;5036793;28;20123;-71
2023/01/09 06:01:56;;;;;;;17.20;3.28;;;;;;;5.49;100.00;99405.91;5023416;28;20053;-71
2023/01/09 06:04:21;;;;;;;13.27;2.67;;;;;;;5.45;100.00;99402.59;5023893;28;20056;-72
2023/01/09 06:06:47;;;;;;;12.52;2.58;;;;;;;5.50;100.00;99398.81;5041406;28;20045;-71
2023/01/09 06:09:12;;;;;;;8.68;2.45;;;;;;;5.56;100.00;99393.97;5024665;28;20041;-70
2023/01/09 06:11:38;;;;;;;8.23;2.33;;;;;;;5.60;100.00;99397.25;5040355;28;20056;-72
2023/01/09 06:14:04;;;;;;;9.48;2.40;;;;;;;5.55;100.00;99402.00;5040113;28;20064;-72
2023/01/09 06:16:30;;;;;;;18.85;2.83;;;;;;;5.65;100.00;99397.81;5020766;28;20041;-71
2023/01/09 06:18:56;;;;;;;6.20;2.15;;;;;;;5.69;100.00;99396.66;5024314;28;20090;-72
2023/01/09 06:21:21;;;;;;;5.10;2.30;;;;;;;5.64;100.00;99382.91;5017088;28;20052;-72
2023/01/09 06:23:47;;;;;;;13.23;2.67;;;;;;;5.81;100.00;99382.59;5040268;28;20051;-72
2023/01/09 06:26:12;;;;;;;12.35;2.33;;;;;;;5.90;100.00;99387.28;5020641;28;20049;-71
2023/01/09 06:28:38;;;;;;;10.48;2.22;;;;;;;5.93;100.00;99381.81;5037675;28;20068;-71
2023/01/09 06:31:04;;;;;;;6.03;2.40;;;;;;;6.02;100.00;99390.06;5041727;28;20045;-72
2023/01/09 06:33:29;;;;;;;10.68;2.25;;;;;;;6.02;100.00;99385.63;5041198;28;20079;-71
2023/01/09 06:35:54;;;;;;;10.30;2.75;;;;;;;6.05;100.00;99382.78;5041320;28;20053;-72
2023/01/09 06:38:20;;;;;;;11.27;2.08;;;;;;;6.05;100.00;99384.59;5038890;28;20053;-71
2023/01/09 06:40:45;;;;;;;9.55;2.28;;;;;;;6.10;100.00;99377.19;5037079;28;20041;-71
2023/01/09 06:43:11;;;;;;;6.20;2.22;;;;;;;6.06;100.00;99384.47;5038462;28;20045;-71
2023/01/09 06:45:36;;;;;;;8.90;2.60;;;;;;;6.08;100.00;99387.88;5042894;28;20834;-71
2023/01/09 06:48:02;;;;;;;7.78;2.38;;;;;;;6.11;100.00;99384.16;5021451;28;20045;-71
2023/01/09 06:50:27;;;;;;;6.60;2.92;;;;;;;6.05;100.00;99389.88;5038901;28;20052;-71
2023/01/09 06:52:53;;;;;;;12.10;2.83;;;;;;;6.20;100.00;99384.38;5010570;28;20106;-71
2023/01/09 06:55:18;;;;;;;12.93;4.85;;;;;;;6.14;100.00;99376.03;5016960;28;20072;-71
2023/01/09 06:57:44;;;;;;;8.05;2.67;;;;;;;6.16;100.00;99379.41;5041697;28;20071;-71
2023/01/09 07:00:10;;;;;;;9.55;2.42;;;;;;;6.20;100.00;99376.44;5026782;28;20057;-71
2023/01/09 07:02:35;;;;;;;12.52;2.40;;;;;;;6.14;100.00;99376.88;5029623;28;20091;-72
2023/01/09 07:05:02;;;;;;;10.70;2.08;;;;;;;6.25;100.00;99372.63;5046499;28;20401;-71
2023/01/09 07:07:27;;;;;;;9.45;3.88;;;;;;;6.19;100.00;99377.41;5011129;28;20045;-71
2023/01/09 07:09:52;;;;;;;14.05;2.83;;;;;;;6.25;100.00;99375.28;5033170;28;20487;-72
2023/01/09 07:12:18;;;;;;;8.23;2.25;;;;;;;6.23;100.00;99368.28;5045904;28;20041;-71
2023/01/09 07:14:43;;;;;;;8.85;2.53;;;;;;;6.20;100.00;99367.66;5037661;28;20047;-71
2023/01/09 07:17:11;;;;;;;8.07;2.30;;;;;;;6.28;100.00;99367.97;5040270;28;20655;-71
2023/01/09 07:19:37;;;;;;;8.77;2.30;;;;;;;6.35;100.00;99376.34;5042912;28;20057;-71
2023/01/09 07:22:02;;;;;;;5.82;2.10;;;;;;;6.31;100.00;99369.56;5043971;28;20162;-71
2023/01/09 07:24:28;;;;;;;9.55;2.60;;;;;;;6.41;100.00;99371.44;5046495;28;20075;-72
2023/01/09 07:26:53;;;;;;;8.18;2.20;;;;;;;6.39;100.00;99370.72;5013725;28;20052;-72
2023/01/09 07:29:19;;;;;;;7.75;2.47;;;;;;;6.43;100.00;99372.19;5022657;28;20049;-73
2023/01/09 07:31:44;;;;;;;9.40;2.22;;;;;;;6.41;100.00;99365.31;5042423;28;20498;-73
2023/01/09 07:34:10;;;;;;;14.48;2.80;;;;;;;6.44;100.00;99370.41;5020009;28;21145;-73
2023/01/09 07:36:35;;;;;;;11.45;2.33;;;;;;;6.44;100.00;99360.66;5039559;28;20044;-73
2023/01/09 07:39:01;;;;;;;8.90;2.28;;;;;;;6.52;100.00;99380.44;5025392;28;20160;-69
2023/01/09 07:41:26;;;;;;;10.32;2.47;;;;;;;6.47;100.00;99373.66;5032044;28;20056;-74
2023/01/09 07:43:52;;;;;;;12.02;2.42;;;;;;;6.43;100.00;99384.59;5025384;28;20051;-73
2023/01/09 07:46:17;;;;;;;11.60;2.53;;;;;;;6.31;100.00;99388.91;5018222;28;20045;-72
2023/01/09 07:48:43;;;;;;;4.53;2.00;;;;;;;6.36;100.00;99389.44;5039448;28;20045;-73
2023/01/09 07:51:09;;;;;;;14.43;2.30;;;;;;;6.38;100.00;99392.84;5016731;28;20057;-72
2023/01/09 07:53:34;;;;;;;14.93;3.25;;;;;;;6.45;100.00;99391.47;5044337;28;20037;-72
2023/01/09 07:56:00;;;;;;;10.85;2.38;;;;;;;6.28;100.00;99399.75;5039842;28;20049;-73
2023/01/09 07:58:25;;;;;;;12.73;2.47;;;;;;;6.37;100.00;99401.72;5036109;28;20045;-73
2023/01/09 08:00:51;;;;;;;8.05;3.40;;;;;;;6.39;100.00;99396.34;5038038;28;20144;-73
2023/01/09 08:03:16;;;;;;;11.23;3.05;;;;;;;6.39;100.00;99393.69;5024395;28;20977;-73
2023/01/09 08:05:42;;;;;;;13.40;2.78;;;;;;;6.38;100.00;99403.44;5041289;28;20044;-73
2023/01/09 08:08:07;;;;;;;7.57;2.97;;;;;;;6.34;100.00;99409.06;5038531;28;20049;-72
2023/01/09 08:10:33;;;;;;;8.40;2.95;;;;;;;6.42;100.00;99419.94;5040442;28;20102;-70
2023/01/09 08:12:58;;;;;;;11.32;3.97;;;;;;;6.35;100.00;99416.88;5012376;28;20693;-73
2023/01/09 08:15:24;;;;;;;9.70;3.70;;;;;;;6.34;100.00;99419.66;5037988;28;20118;-72
2023/01/09 08:17:49;;;;;;;9.55;2.78;;;;;;;6.39;100.00;99418.38;5045089;28;20040;-73
2023/01/09 08:20:16;;;;;;;7.13;2.80;;;;;;;6.40;100.00;99416.56;5043540;28;20049;-72
2023/01/09 08:22:42;;;;;;;13.68;3.25;;;;;;;6.43;100.00;99417.22;5023819;28;20076;-71
2023/01/09 08:25:09;;;;;;;14.82;3.20;;;;;;;6.42;100.00;99430.53;5038337;28;20081;-73
2023/01/09 08:27:34;;;;;;;10.20;2.38;;;;;;;6.46;100.00;99421.44;5044554;28;20045;-72
2023/01/09 08:30:00;;;;;;;20.27;4.10;;;;;;;6.54;100.00;99426.22;5044278;28;20037;-72
2023/01/09 08:32:25;;;;;;;17.33;3.03;;;;;;;6.48;100.00;99436.28;5045615;28;20045;-72
2023/01/09 08:34:51;;;;;;;12.90;3.58;;;;;;;6.49;100.00;99434.47;5025760;28;20041;-73
2023/01/09 08:37:16;;;;;;;10.88;4.53;;;;;;;6.45;100.00;99439.13;5043732;28;20871;-73
2023/01/09 08:39:42;;;;;;;16.67;4.38;;;;;;;6.51;100.00;99439.66;5044834;28;20049;-70
2023/01/09 08:47:35;;;;;;;9.10;3.63;;;;;;;6.57;100.00;99445.38;5039790;28;20469;-73
2023/01/09 08:50:01;;;;;;;17.25;3.92;;;;;;;6.49;100.00;99448.56;5039956;28;20041;-73
2023/01/09 08:52:29;;;;;;;8.35;3.72;;;;;;;6.53;100.00;99453.66;5052184;28;20045;-73
2023/01/09 08:54:55;;;;;;;16.58;4.25;;;;;;;6.51;100.00;99448.44;5043348;28;20083;-72
2023/01/09 08:57:20;;;;;;;25.27;4.95;;;;;;;6.51;100.00;99471.44;5035473;28;20053;-72
2023/01/09 08:59:46;;;;;;;14.20;3.75;;;;;;;6.49;100.00;99459.16;5002267;28;20045;-72
2023/01/09 09:02:11;;;;;;;12.63;4.75;;;;;;;6.56;100.00;99470.16;5020330;28;20045;-72
2023/01/09 09:04:36;;;;;;;11.30;3.30;;;;;;;6.56;100.00;99461.38;5041055;28;20490;-72
2023/01/09 09:07:02;;;;;;;11.20;5.85;;;;;;;6.61;100.00;99469.84;5029414;28;20529;-72
2023/01/09 09:09:27;;;;;;;12.70;4.22;;;;;;;6.73;100.00;99458.41;5033869;28;20595;-72
2023/01/09 09:11:53;;;;;;;7.55;3.60;;;;;;;6.73;100.00;99458.41;5034784;28;20055;-72
2023/01/09 09:17:02;;;;;;;13.23;4.00;;;;;;;6.89;100.00;99464.31;5039207;28;20055;-72
2023/01/09 09:19:28;;;;;;;14.13;4.80;;;;;;;7.10;100.00;99477.84;5033007;28;20045;-72
2023/01/09 09:21:53;;;;;;;11.70;4.10;;;;;;;7.20;100.00;99470.09;5029189;28;20052;-73
2023/01/09 09:24:18;;;;;;;16.65;4.40;;;;;;;7.30;100.00;99483.53;5031572;28;20049;-70
2023/01/09 09:26:44;;;;;;;8.05;3.97;;;;;;;7.30;100.00;99492.34;5036660;28;20528;-72
2023/01/09 09:29:09;;;;;;;12.48;4.32;;;;;;;7.20;100.00;99470.09;5021729;28;20532;-72
2023/01/09 09:31:37;;;;;;;7.68;3.80;;;;;;;7.32;100.00;99482.47;5040001;28;20878;-70
2023/01/09 09:34:04;;;;;;;11.85;3.90;;;;;;;7.33;100.00;99478.00;5040884;28;20170;-72
2023/01/09 09:36:29;;;;;;;14.35;4.40;;;;;;;7.42;100.00;99488.78;5040081;28;20049;-72
2023/01/09 09:38:54;;;;;;;10.48;4.18;;;;;;;7.40;100.00;99496.03;5035165;28;20094;-72
2023/01/09 09:47:05;;;;;;;7.70;3.95;;;;;;;7.53;100.00;99502.16;5034480;28;20053;-72
2023/01/09 09:50:15;;;;;;;8.07;3.40;;;;;;;7.66;100.00;99509.22;5033103;28;20095;-73
2023/01/09 09:52:51;;;;;;;7.82;3.15;;;;;;;7.61;100.00;99504.25;5013464;28;20155;-73
2023/01/09 09:55:25;;;;;;;8.95;3.13;;;;;;;7.52;100.00;99518.16;5012368;28;20081;-72
2023/01/09 09:57:52;;;;;;;4.95;2.83;;;;;;;7.44;100.00;99534.63;5037437;28;20041;-73
2023/01/09 10:00:20;;;;;;;10.70;3.25;;;;;;;7.35;100.00;99524.69;5034234;28;20048;-70
2023/01/09 10:02:51;;;;;;;6.50;2.70;;;;;;;7.34;100.00;99525.66;5033073;28;20062;-73
2023/01/09 10:05:26;;;;;;;6.93;3.00;;;;;;;7.39;100.00;99533.28;5022535;28;20045;-70
2023/01/09 10:07:52;;;;;;;13.95;3.90;;;;;;;7.30;100.00;99565.75;5037241;28;20065;-70
2023/01/09 10:10:39;;;;;;;9.57;4.03;;;;;;;7.31;100.00;99560.31;5037107;28;20108;-70
2023/01/09 10:16:53;;;;;;;10.50;3.40;;;;;;;7.26;100.00;99573.91;5036238;28;20060;-70
2023/01/09 10:19:22;;;;;;;11.48;3.28;;;;;;;7.36;100.00;99579.41;4947966;28;20051;-70
2023/01/09 10:22:02;;;;;;;7.35;3.90;;;;;;;7.38;100.00;99579.28;4951537;28;20918;-71
2023/01/09 10:24:45;;;;;;;6.80;3.65;;;;;;;7.40;100.00;99586.19;4957010;28;20160;-71
2023/01/09 10:27:34;;;;;;;10.43;3.65;;;;;;;7.54;100.00;99582.56;4953928;28;20043;-70
2023/01/09 10:30:23;;;;;;;8.85;5.00;;;;;;;7.45;100.00;99583.22;4956622;28;20543;-71
2023/01/09 10:32:48;;;;;;;8.73;4.47;;;;;;;7.55;100.00;99589.56;4954219;28;20137;-71
2023/01/09 10:35:25;;;;;;;15.80;4.30;;;;;;;7.55;100.00;99586.91;4950662;28;20058;-70
2023/01/09 10:37:54;;;;;;;8.50;4.80;;;;;;;7.62;100.00;99595.28;4958772;28;20582;-71
2023/01/09 10:40:19;;;;;;;10.85;4.88;;;;;;;7.71;100.00;99591.97;4952046;28;20055;-71
2023/01/09 10:42:46;;;;;;;15.50;4.70;;;;;;;7.79;100.00;99605.56;4958107;28;20061;-71
2023/01/09 10:45:34;;;;;;;9.57;3.83;;;;;;;7.88;100.00;99604.91;4961355;28;20058;-70
2023/01/09 10:48:23;;;;;;;6.97;4.82;;;;;;;7.96;100.00;99612.28;4954465;28;20054;-70
2023/01/09 10:50:50;;;;;;;13.02;5.32;;;;;;;7.95;100.00;99610.59;4954435;28;20129;-71
2023/01/09 10:53:25;;;;;;;12.00;4.40;;;;;;;7.71;100.00;99623.81;4992649;28;20053;-71
2023/01/09 10:55:56;;;;;;;7.05;3.80;;;;;;;7.76;100.00;99621.69;5015011;28;20080;-71
2023/01/09 10:58:22;;;;;;;6.28;3.88;;;;;;;7.77;100.00;99628.69;5014817;28;20057;-70
2023/01/09 11:00:49;;;;;;;9.70;3.75;;;;;;;7.76;100.00;99637.59;5038200;28;20406;-70
2023/01/09 11:03:17;;;;;;;15.57;4.00;;;;;;;7.77;100.00;99636.63;5014014;28;20056;-71
2023/01/09 11:05:49;;;;;;;15.02;4.43;;;;;;;7.83;100.00;99638.00;5040622;28;20508;-70
2023/01/09 11:08:40;;;;;;;7.35;3.78;;;;;;;7.75;100.00;99635.91;5033819;28;20053;-70
2023/01/09 11:11:07;;;;;;;6.63;3.88;;;;;;;7.72;100.00;99646.72;5036711;28;20051;-73
2023/01/09 11:13:35;;;;;;;8.95;3.83;;;;;;;7.81;100.00;99650.53;5037495;28;20863;-70
2023/01/09 11:16:15;;;;;;;11.68;4.63;;;;;;;7.82;100.00;99658.38;5018610;28;20057;-70
2023/01/09 11:18:51;;;;;;;8.60;4.97;;;;;;;7.82;100.00;99649.59;5032414;28;20095;-71
2023/01/09 11:21:40;;;;;;;12.35;4.88;;;;;;;7.78;100.00;99657.78;5037189;28;20524;-71
2023/01/09 11:24:17;;;;;;;15.70;5.20;;;;;;;7.99;100.00;99647.44;5041487;28;20493;-71
2023/01/09 11:26:44;;;;;;;7.10;3.92;;;;;;;8.02;100.00;99647.19;5039910;28;20821;-71
2023/01/09 11:29:23;;;;;;;7.10;3.70;;;;;;;8.05;100.00;99651.44;5024266;28;20065;-71
2023/01/09 11:31:58;;;;;;;8.25;3.70;;;;;;;8.13;100.00;99657.03;5038322;28;20604;-72
2023/01/09 11:34:29;;;;;;;6.72;2.72;;;;;;;7.96;100.00;99657.41;5034306;28;20102;-73
2023/01/09 11:37:05;;;;;;;10.75;2.88;;;;;;;7.89;100.00;99664.13;5025421;28;20063;-73
2023/01/09 11:39:33;;;;;;;8.52;2.90;;;;;;;8.03;100.00;99653.34;5042743;28;20064;-72
2023/01/09 11:42:02;;;;;;;8.90;3.55;;;;;;;8.02;100.00;99660.47;5042606;28;20091;-72
2023/01/09 11:44:30;;;;;;;14.27;2.83;;;;;;;8.33;100.00;99666.22;5039222;28;20182;-71
2023/01/09 11:46:56;;;;;;;8.77;3.15;;;;;;;8.61;100.00;99667.72;5021903;28;20048;-73
2023/01/09 11:49:27;;;;;;;6.60;2.85;;;;;;;8.71;100.00;99675.88;5042972;28;20060;-71
2023/01/09 11:52:19;;;;;;;6.70;3.45;;;;;;;8.85;100.00;99677.50;5038109;28;20065;-71
2023/01/09 11:55:01;;;;;;;11.80;3.47;;;;;;;8.76;100.00;99687.00;5033858;28;20053;-71
2023/01/09 11:57:27;;;;;;;;;;;;;;;8.86;100.00;99688.00;5017236;28;20068;-71
2023/01/09 12:00:00;;;;;;;5.03;3.65;;;;;;;8.86;100.00;99685.34;5036100;28;19921;-70